sensor_id;sensor_type;location;lat;lon;timestamp;P1;durP1;ratioP1;P2;durP2;ratioP2
53753;SDS011;39667;52.274;20.964;2022-09-09T00:01:19;8.70;;;5.00;;
53753;SDS011;39667;52.274;20.964;2022-09-09T00:07:13;7.10;;;5.30;;
53753;SDS011;39667;52.274;20.964;2022-09-09T00:10:13;8.20;;;5.30;;
53753;SDS011;39667;52.274;20.964;2022-09-09T00:18:21;9.40;;;6.10;;
53753;SDS011;39667;52.274;20.964;2022-09-09T00:23:48;6.60;;;4.70;;
53753;SDS011;39667;52.274;20.964;2022-09-09T00:26:32;8.30;;;6.00;;
53753;SDS011;39667;52.274;20.964;2022-09-09T00:31:43;8.90;;;5.10;;
53753;SDS011;39667;52.274;20.964;2022-09-09T00:34:14;9.70;;;5.80;;
53753;SDS011;39667;52.274;20.964;2022-09-09T00:36:48;8.50;;;5.80;;
53753;SDS011;39667;52.274;20.964;2022-09-09T00:39:31;11.60;;;5.70;;
53753;SDS011;39667;52.274;20.964;2022-09-09T00:47:50;8.20;;;5.50;;
53753;SDS011;39667;52.274;20.964;2022-09-09T00:50:35;8.10;;;5.60;;
53753;SDS011;39667;52.274;20.964;2022-09-09T00:53:16;9.30;;;6.60;;
53753;SDS011;39667;52.274;20.964;2022-09-09T00:56:14;8.90;;;6.00;;
53753;SDS011;39667;52.274;20.964;2022-09-09T00:58:51;7.50;;;5.30;;
53753;SDS011;39667;52.274;20.964;2022-09-09T01:01:40;10.70;;;6.10;;
53753;SDS011;39667;52.274;20.964;2022-09-09T01:04:09;8.60;;;5.70;;
53753;SDS011;39667;52.274;20.964;2022-09-09T01:07:18;13.00;;;5.80;;
53753;SDS011;39667;52.274;20.964;2022-09-09T01:12:39;10.30;;;6.50;;
53753;SDS011;39667;52.274;20.964;2022-09-09T01:15:15;12.50;;;6.10;;
53753;SDS011;39667;52.274;20.964;2022-09-09T01:18:14;11.70;;;5.60;;
53753;SDS011;39667;52.274;20.964;2022-09-09T01:20:52;9.00;;;6.10;;
53753;SDS011;39667;52.274;20.964;2022-09-09T01:25:07;10.70;;;5.80;;
53753;SDS011;39667;52.274;20.964;2022-09-09T01:28:08;9.70;;;6.50;;
53753;SDS011;39667;52.274;20.964;2022-09-09T01:30:40;8.80;;;6.20;;
53753;SDS011;39667;52.274;20.964;2022-09-09T01:33:15;8.80;;;6.50;;
53753;SDS011;39667;52.274;20.964;2022-09-09T01:38:37;7.80;;;5.70;;
53753;SDS011;39667;52.274;20.964;2022-09-09T01:41:04;10.20;;;6.60;;
53753;SDS011;39667;52.274;20.964;2022-09-09T01:43:41;9.20;;;6.60;;
53753;SDS011;39667;52.274;20.964;2022-09-09T01:46:08;10.30;;;6.60;;
53753;SDS011;39667;52.274;20.964;2022-09-09T01:48:38;8.10;;;6.10;;
53753;SDS011;39667;52.274;20.964;2022-09-09T01:51:08;8.80;;;6.30;;
53753;SDS011;39667;52.274;20.964;2022-09-09T01:53:37;9.00;;;5.90;;
53753;SDS011;39667;52.274;20.964;2022-09-09T02:08:05;10.30;;;6.30;;
53753;SDS011;39667;52.274;20.964;2022-09-09T02:14:01;11.20;;;6.00;;
53753;SDS011;39667;52.274;20.964;2022-09-09T02:16:38;11.80;;;6.50;;
53753;SDS011;39667;52.274;20.964;2022-09-09T02:19:15;9.00;;;7.00;;
53753;SDS011;39667;52.274;20.964;2022-09-09T02:23:12;10.00;;;6.10;;
53753;SDS011;39667;52.274;20.964;2022-09-09T02:25:42;7.60;;;5.70;;
53753;SDS011;39667;52.274;20.964;2022-09-09T02:28:18;13.50;;;6.00;;
53753;SDS011;39667;52.274;20.964;2022-09-09T02:30:49;10.10;;;6.30;;
53753;SDS011;39667;52.274;20.964;2022-09-09T02:33:27;9.70;;;6.40;;
53753;SDS011;39667;52.274;20.964;2022-09-09T02:36:37;10.00;;;6.40;;
53753;SDS011;39667;52.274;20.964;2022-09-09T02:39:09;10.40;;;6.50;;
53753;SDS011;39667;52.274;20.964;2022-09-09T02:41:39;10.40;;;7.00;;
53753;SDS011;39667;52.274;20.964;2022-09-09T02:44:14;12.10;;;6.40;;
53753;SDS011;39667;52.274;20.964;2022-09-09T02:52:02;11.90;;;8.60;;
53753;SDS011;39667;52.274;20.964;2022-09-09T02:54:35;10.30;;;7.00;;
53753;SDS011;39667;52.274;20.964;2022-09-09T02:59:46;11.40;;;7.10;;
53753;SDS011;39667;52.274;20.964;2022-09-09T03:02:15;8.00;;;5.90;;
53753;SDS011;39667;52.274;20.964;2022-09-09T03:04:44;10.60;;;7.00;;
53753;SDS011;39667;52.274;20.964;2022-09-09T03:07:18;9.30;;;7.30;;
53753;SDS011;39667;52.274;20.964;2022-09-09T03:09:46;10.50;;;6.60;;
53753;SDS011;39667;52.274;20.964;2022-09-09T03:12:13;10.30;;;7.40;;
53753;SDS011;39667;52.274;20.964;2022-09-09T03:14:41;9.00;;;7.50;;
53753;SDS011;39667;52.274;20.964;2022-09-09T03:17:10;9.60;;;7.10;;
53753;SDS011;39667;52.274;20.964;2022-09-09T03:19:42;11.40;;;7.30;;
53753;SDS011;39667;52.274;20.964;2022-09-09T03:22:11;13.90;;;7.70;;
53753;SDS011;39667;52.274;20.964;2022-09-09T03:24:41;9.10;;;7.50;;
53753;SDS011;39667;52.274;20.964;2022-09-09T03:27:08;9.30;;;7.20;;
53753;SDS011;39667;52.274;20.964;2022-09-09T03:29:36;9.70;;;7.00;;
53753;SDS011;39667;52.274;20.964;2022-09-09T03:32:06;9.70;;;7.10;;
53753;SDS011;39667;52.274;20.964;2022-09-09T03:34:33;8.40;;;7.40;;
53753;SDS011;39667;52.274;20.964;2022-09-09T03:37:01;9.10;;;6.60;;
53753;SDS011;39667;52.274;20.964;2022-09-09T03:39:28;9.00;;;6.80;;
53753;SDS011;39667;52.274;20.964;2022-09-09T03:41:57;8.70;;;6.60;;
53753;SDS011;39667;52.274;20.964;2022-09-09T03:44:25;10.50;;;6.50;;
53753;SDS011;39667;52.274;20.964;2022-09-09T03:46:53;9.10;;;6.80;;
53753;SDS011;39667;52.274;20.964;2022-09-09T03:49:22;9.60;;;6.10;;
53753;SDS011;39667;52.274;20.964;2022-09-09T03:51:50;10.20;;;7.30;;
53753;SDS011;39667;52.274;20.964;2022-09-09T03:54:17;10.10;;;6.80;;
53753;SDS011;39667;52.274;20.964;2022-09-09T03:56:44;7.60;;;5.10;;
53753;SDS011;39667;52.274;20.964;2022-09-09T03:59:12;8.90;;;5.70;;
53753;SDS011;39667;52.274;20.964;2022-09-09T04:01:41;7.80;;;6.30;;
53753;SDS011;39667;52.274;20.964;2022-09-09T04:04:08;10.20;;;6.50;;
53753;SDS011;39667;52.274;20.964;2022-09-09T04:06:36;8.80;;;6.00;;
53753;SDS011;39667;52.274;20.964;2022-09-09T04:09:03;7.50;;;5.90;;
53753;SDS011;39667;52.274;20.964;2022-09-09T04:11:30;7.90;;;5.90;;
53753;SDS011;39667;52.274;20.964;2022-09-09T04:13:58;7.20;;;5.40;;
53753;SDS011;39667;52.274;20.964;2022-09-09T04:16:25;7.60;;;6.20;;
53753;SDS011;39667;52.274;20.964;2022-09-09T04:18:52;8.80;;;5.80;;
53753;SDS011;39667;52.274;20.964;2022-09-09T04:21:19;9.60;;;5.40;;
53753;SDS011;39667;52.274;20.964;2022-09-09T04:23:47;6.00;;;4.80;;
53753;SDS011;39667;52.274;20.964;2022-09-09T04:26:16;7.80;;;5.20;;
53753;SDS011;39667;52.274;20.964;2022-09-09T04:28:44;6.70;;;4.60;;
53753;SDS011;39667;52.274;20.964;2022-09-09T04:31:16;6.60;;;4.80;;
53753;SDS011;39667;52.274;20.964;2022-09-09T04:33:47;6.90;;;4.90;;
53753;SDS011;39667;52.274;20.964;2022-09-09T04:36:14;7.90;;;6.10;;
53753;SDS011;39667;52.274;20.964;2022-09-09T04:38:43;7.30;;;4.80;;
53753;SDS011;39667;52.274;20.964;2022-09-09T04:41:11;6.40;;;4.70;;
53753;SDS011;39667;52.274;20.964;2022-09-09T04:43:39;6.30;;;4.70;;
53753;SDS011;39667;52.274;20.964;2022-09-09T04:46:07;14.90;;;5.40;;
53753;SDS011;39667;52.274;20.964;2022-09-09T04:48:34;5.80;;;4.10;;
53753;SDS011;39667;52.274;20.964;2022-09-09T04:51:05;4.70;;;4.30;;
53753;SDS011;39667;52.274;20.964;2022-09-09T04:53:36;6.80;;;4.90;;
53753;SDS011;39667;52.274;20.964;2022-09-09T04:56:05;5.20;;;4.30;;
53753;SDS011;39667;52.274;20.964;2022-09-09T04:58:41;7.80;;;4.60;;
53753;SDS011;39667;52.274;20.964;2022-09-09T05:01:14;5.90;;;5.30;;
53753;SDS011;39667;52.274;20.964;2022-09-09T05:03:47;5.90;;;4.30;;
53753;SDS011;39667;52.274;20.964;2022-09-09T05:06:20;7.40;;;4.50;;
53753;SDS011;39667;52.274;20.964;2022-09-09T05:08:52;6.00;;;5.00;;
53753;SDS011;39667;52.274;20.964;2022-09-09T05:11:24;4.70;;;4.10;;
53753;SDS011;39667;52.274;20.964;2022-09-09T05:13:59;4.90;;;4.10;;
53753;SDS011;39667;52.274;20.964;2022-09-09T05:16:28;5.40;;;3.80;;
53753;SDS011;39667;52.274;20.964;2022-09-09T05:18:57;5.10;;;4.60;;
53753;SDS011;39667;52.274;20.964;2022-09-09T05:21:31;5.10;;;4.10;;
53753;SDS011;39667;52.274;20.964;2022-09-09T05:24:01;4.30;;;3.90;;
53753;SDS011;39667;52.274;20.964;2022-09-09T05:26:29;3.80;;;3.20;;
53753;SDS011;39667;52.274;20.964;2022-09-09T05:28:58;5.40;;;4.10;;
53753;SDS011;39667;52.274;20.964;2022-09-09T05:31:29;7.40;;;4.40;;
53753;SDS011;39667;52.274;20.964;2022-09-09T05:34:00;5.10;;;3.50;;
53753;SDS011;39667;52.274;20.964;2022-09-09T05:36:28;4.00;;;3.30;;
53753;SDS011;39667;52.274;20.964;2022-09-09T05:38:55;4.70;;;4.10;;
53753;SDS011;39667;52.274;20.964;2022-09-09T05:41:25;4.10;;;3.70;;
53753;SDS011;39667;52.274;20.964;2022-09-09T05:43:54;5.20;;;4.00;;
53753;SDS011;39667;52.274;20.964;2022-09-09T05:46:22;4.90;;;3.70;;
53753;SDS011;39667;52.274;20.964;2022-09-09T05:48:52;4.50;;;3.70;;
53753;SDS011;39667;52.274;20.964;2022-09-09T05:51:28;4.30;;;3.80;;
53753;SDS011;39667;52.274;20.964;2022-09-09T05:53:58;4.80;;;3.70;;
53753;SDS011;39667;52.274;20.964;2022-09-09T05:56:28;5.00;;;3.30;;
53753;SDS011;39667;52.274;20.964;2022-09-09T05:58:57;4.10;;;3.40;;
53753;SDS011;39667;52.274;20.964;2022-09-09T06:01:29;4.90;;;3.30;;
53753;SDS011;39667;52.274;20.964;2022-09-09T06:03:59;4.10;;;3.60;;
53753;SDS011;39667;52.274;20.964;2022-09-09T06:06:35;5.50;;;3.80;;
53753;SDS011;39667;52.274;20.964;2022-09-09T06:09:10;5.20;;;3.70;;
53753;SDS011;39667;52.274;20.964;2022-09-09T06:11:39;3.80;;;3.40;;
53753;SDS011;39667;52.274;20.964;2022-09-09T06:14:08;4.50;;;4.10;;
53753;SDS011;39667;52.274;20.964;2022-09-09T06:16:36;3.80;;;3.40;;
53753;SDS011;39667;52.274;20.964;2022-09-09T06:19:11;4.10;;;3.10;;
53753;SDS011;39667;52.274;20.964;2022-09-09T06:21:39;4.50;;;3.30;;
53753;SDS011;39667;52.274;20.964;2022-09-09T06:24:09;5.70;;;3.70;;
53753;SDS011;39667;52.274;20.964;2022-09-09T06:26:40;4.40;;;3.20;;
53753;SDS011;39667;52.274;20.964;2022-09-09T06:29:10;5.70;;;3.50;;
53753;SDS011;39667;52.274;20.964;2022-09-09T06:31:39;3.70;;;3.30;;
53753;SDS011;39667;52.274;20.964;2022-09-09T06:34:16;4.10;;;3.40;;
53753;SDS011;39667;52.274;20.964;2022-09-09T06:36:46;4.50;;;3.50;;
53753;SDS011;39667;52.274;20.964;2022-09-09T06:39:15;3.70;;;3.40;;
53753;SDS011;39667;52.274;20.964;2022-09-09T06:41:43;5.60;;;3.70;;
53753;SDS011;39667;52.274;20.964;2022-09-09T06:44:39;3.20;;;2.90;;
53753;SDS011;39667;52.274;20.964;2022-09-09T06:47:11;4.60;;;3.30;;
53753;SDS011;39667;52.274;20.964;2022-09-09T06:49:43;4.60;;;3.30;;
53753;SDS011;39667;52.274;20.964;2022-09-09T06:52:16;4.30;;;3.60;;
53753;SDS011;39667;52.274;20.964;2022-09-09T06:54:45;4.00;;;3.50;;
53753;SDS011;39667;52.274;20.964;2022-09-09T06:57:12;5.40;;;3.60;;
53753;SDS011;39667;52.274;20.964;2022-09-09T07:00:00;3.40;;;3.10;;
53753;SDS011;39667;52.274;20.964;2022-09-09T07:02:31;4.60;;;3.90;;
53753;SDS011;39667;52.274;20.964;2022-09-09T07:06:45;5.30;;;4.10;;
53753;SDS011;39667;52.274;20.964;2022-09-09T07:09:20;4.50;;;3.80;;
53753;SDS011;39667;52.274;20.964;2022-09-09T07:11:49;4.70;;;3.70;;
53753;SDS011;39667;52.274;20.964;2022-09-09T07:14:20;6.20;;;4.40;;
53753;SDS011;39667;52.274;20.964;2022-09-09T07:16:56;7.30;;;5.00;;
53753;SDS011;39667;52.274;20.964;2022-09-09T07:19:29;6.50;;;4.60;;
53753;SDS011;39667;52.274;20.964;2022-09-09T07:21:57;6.00;;;5.00;;
53753;SDS011;39667;52.274;20.964;2022-09-09T07:24:24;4.80;;;4.20;;
53753;SDS011;39667;52.274;20.964;2022-09-09T07:26:51;6.40;;;4.10;;
53753;SDS011;39667;52.274;20.964;2022-09-09T07:29:19;6.20;;;4.40;;
53753;SDS011;39667;52.274;20.964;2022-09-09T07:32:10;5.60;;;4.40;;
53753;SDS011;39667;52.274;20.964;2022-09-09T07:34:37;6.40;;;5.20;;
53753;SDS011;39667;52.274;20.964;2022-09-09T07:37:05;6.20;;;5.60;;
53753;SDS011;39667;52.274;20.964;2022-09-09T07:39:32;6.90;;;5.50;;
53753;SDS011;39667;52.274;20.964;2022-09-09T07:42:01;6.20;;;5.00;;
53753;SDS011;39667;52.274;20.964;2022-09-09T07:44:29;6.00;;;4.90;;
53753;SDS011;39667;52.274;20.964;2022-09-09T07:47:12;8.70;;;5.50;;
53753;SDS011;39667;52.274;20.964;2022-09-09T07:49:44;7.80;;;5.80;;
53753;SDS011;39667;52.274;20.964;2022-09-09T07:52:15;5.70;;;5.10;;
53753;SDS011;39667;52.274;20.964;2022-09-09T07:54:48;6.80;;;5.60;;
53753;SDS011;39667;52.274;20.964;2022-09-09T07:57:16;6.30;;;5.20;;
53753;SDS011;39667;52.274;20.964;2022-09-09T07:59:45;8.20;;;5.90;;
53753;SDS011;39667;52.274;20.964;2022-09-09T08:02:13;6.30;;;5.70;;
53753;SDS011;39667;52.274;20.964;2022-09-09T08:04:40;8.60;;;6.70;;
53753;SDS011;39667;52.274;20.964;2022-09-09T08:07:07;6.40;;;5.70;;
53753;SDS011;39667;52.274;20.964;2022-09-09T08:09:40;7.50;;;6.30;;
53753;SDS011;39667;52.274;20.964;2022-09-09T08:12:16;6.00;;;5.30;;
53753;SDS011;39667;52.274;20.964;2022-09-09T08:14:44;7.20;;;6.40;;
53753;SDS011;39667;52.274;20.964;2022-09-09T08:17:11;7.30;;;6.60;;
53753;SDS011;39667;52.274;20.964;2022-09-09T08:19:38;6.70;;;6.10;;
53753;SDS011;39667;52.274;20.964;2022-09-09T08:22:09;5.90;;;5.40;;
53753;SDS011;39667;52.274;20.964;2022-09-09T08:24:38;12.50;;;7.40;;
53753;SDS011;39667;52.274;20.964;2022-09-09T08:27:06;7.40;;;6.60;;
53753;SDS011;39667;52.274;20.964;2022-09-09T08:29:33;8.50;;;7.20;;
53753;SDS011;39667;52.274;20.964;2022-09-09T08:32:00;8.20;;;7.50;;
53753;SDS011;39667;52.274;20.964;2022-09-09T08:34:28;7.90;;;7.10;;
53753;SDS011;39667;52.274;20.964;2022-09-09T08:36:58;8.70;;;7.60;;
53753;SDS011;39667;52.274;20.964;2022-09-09T08:39:31;9.30;;;6.80;;
53753;SDS011;39667;52.274;20.964;2022-09-09T08:55:40;9.00;;;8.00;;
53753;SDS011;39667;52.274;20.964;2022-09-09T08:58:34;11.30;;;8.30;;
53753;SDS011;39667;52.274;20.964;2022-09-09T09:13:39;10.70;;;9.20;;
53753;SDS011;39667;52.274;20.964;2022-09-09T09:16:29;9.70;;;8.40;;
53753;SDS011;39667;52.274;20.964;2022-09-09T09:19:03;9.20;;;8.10;;
53753;SDS011;39667;52.274;20.964;2022-09-09T09:21:44;11.40;;;9.30;;
53753;SDS011;39667;52.274;20.964;2022-09-09T09:27:15;12.00;;;10.20;;
53753;SDS011;39667;52.274;20.964;2022-09-09T09:29:48;11.40;;;9.20;;
53753;SDS011;39667;52.274;20.964;2022-09-09T09:32:38;13.10;;;10.10;;
53753;SDS011;39667;52.274;20.964;2022-09-09T09:35:11;12.60;;;9.10;;
53753;SDS011;39667;52.274;20.964;2022-09-09T09:37:41;11.50;;;9.50;;
53753;SDS011;39667;52.274;20.964;2022-09-09T09:40:31;10.90;;;9.90;;
53753;SDS011;39667;52.274;20.964;2022-09-09T09:42:59;12.10;;;10.80;;
53753;SDS011;39667;52.274;20.964;2022-09-09T09:48:05;11.10;;;9.70;;
53753;SDS011;39667;52.274;20.964;2022-09-09T09:53:26;11.70;;;10.30;;
53753;SDS011;39667;52.274;20.964;2022-09-09T10:01:26;10.60;;;9.20;;
53753;SDS011;39667;52.274;20.964;2022-09-09T10:04:29;13.80;;;9.40;;
53753;SDS011;39667;52.274;20.964;2022-09-09T10:06:52;11.40;;;10.20;;
53753;SDS011;39667;52.274;20.964;2022-09-09T10:09:23;12.40;;;11.20;;
53753;SDS011;39667;52.274;20.964;2022-09-09T10:20:14;13.80;;;11.00;;
53753;SDS011;39667;52.274;20.964;2022-09-09T10:23:14;11.60;;;10.40;;
53753;SDS011;39667;52.274;20.964;2022-09-09T10:32:26;15.00;;;10.60;;
53753;SDS011;39667;52.274;20.964;2022-09-09T10:34:58;11.90;;;10.70;;
53753;SDS011;39667;52.274;20.964;2022-09-09T10:46:19;13.50;;;11.40;;
53753;SDS011;39667;52.274;20.964;2022-09-09T10:49:13;13.70;;;11.90;;
53753;SDS011;39667;52.274;20.964;2022-09-09T10:54:58;13.60;;;12.00;;
53753;SDS011;39667;52.274;20.964;2022-09-09T10:57:51;17.60;;;14.00;;
53753;SDS011;39667;52.274;20.964;2022-09-09T11:03:13;17.10;;;13.90;;
53753;SDS011;39667;52.274;20.964;2022-09-09T11:06:06;15.40;;;13.80;;
53753;SDS011;39667;52.274;20.964;2022-09-09T11:08:38;20.20;;;14.60;;
53753;SDS011;39667;52.274;20.964;2022-09-09T11:11:13;20.40;;;14.50;;
53753;SDS011;39667;52.274;20.964;2022-09-09T11:13:46;18.80;;;15.10;;
53753;SDS011;39667;52.274;20.964;2022-09-09T11:19:20;18.80;;;15.00;;
53753;SDS011;39667;52.274;20.964;2022-09-09T11:22:27;18.90;;;14.40;;
53753;SDS011;39667;52.274;20.964;2022-09-09T11:39:06;19.90;;;16.50;;
53753;SDS011;39667;52.274;20.964;2022-09-09T11:41:49;22.00;;;17.10;;
53753;SDS011;39667;52.274;20.964;2022-09-09T11:44:24;23.00;;;19.10;;
53753;SDS011;39667;52.274;20.964;2022-09-09T11:47:21;22.40;;;18.50;;
53753;SDS011;39667;52.274;20.964;2022-09-09T11:50:09;21.00;;;16.30;;
53753;SDS011;39667;52.274;20.964;2022-09-09T11:55:40;20.10;;;16.60;;
53753;SDS011;39667;52.274;20.964;2022-09-09T12:00:39;23.60;;;18.70;;
53753;SDS011;39667;52.274;20.964;2022-09-09T12:06:18;22.60;;;17.50;;
53753;SDS011;39667;52.274;20.964;2022-09-09T12:09:17;23.60;;;19.50;;
53753;SDS011;39667;52.274;20.964;2022-09-09T12:11:52;23.80;;;17.80;;
53753;SDS011;39667;52.274;20.964;2022-09-09T12:14:20;26.30;;;18.50;;
53753;SDS011;39667;52.274;20.964;2022-09-09T12:17:09;23.10;;;18.90;;
53753;SDS011;39667;52.274;20.964;2022-09-09T12:25:57;20.90;;;17.10;;
53753;SDS011;39667;52.274;20.964;2022-09-09T12:30:59;23.70;;;19.10;;
53753;SDS011;39667;52.274;20.964;2022-09-09T12:33:49;27.80;;;22.00;;
53753;SDS011;39667;52.274;20.964;2022-09-09T12:36:23;25.50;;;20.20;;
53753;SDS011;39667;52.274;20.964;2022-09-09T12:41:26;26.80;;;20.40;;
53753;SDS011;39667;52.274;20.964;2022-09-09T12:44:10;24.70;;;19.70;;
53753;SDS011;39667;52.274;20.964;2022-09-09T12:46:44;22.70;;;19.50;;
53753;SDS011;39667;52.274;20.964;2022-09-09T12:52:02;24.80;;;20.10;;
53753;SDS011;39667;52.274;20.964;2022-09-09T12:54:33;25.50;;;19.90;;
53753;SDS011;39667;52.274;20.964;2022-09-09T12:57:03;25.80;;;20.80;;
53753;SDS011;39667;52.274;20.964;2022-09-09T12:59:37;26.80;;;21.00;;
53753;SDS011;39667;52.274;20.964;2022-09-09T13:02:11;26.30;;;20.60;;
53753;SDS011;39667;52.274;20.964;2022-09-09T13:04:46;27.90;;;21.80;;
53753;SDS011;39667;52.274;20.964;2022-09-09T13:07:13;24.60;;;20.90;;
53753;SDS011;39667;52.274;20.964;2022-09-09T13:09:43;24.00;;;19.50;;
53753;SDS011;39667;52.274;20.964;2022-09-09T13:12:13;23.40;;;19.00;;
53753;SDS011;39667;52.274;20.964;2022-09-09T13:14:50;26.80;;;20.70;;
53753;SDS011;39667;52.274;20.964;2022-09-09T13:17:26;28.80;;;22.30;;
53753;SDS011;39667;52.274;20.964;2022-09-09T13:19:55;28.50;;;22.40;;
53753;SDS011;39667;52.274;20.964;2022-09-09T13:22:30;24.20;;;19.60;;
53753;SDS011;39667;52.274;20.964;2022-09-09T13:25:05;26.40;;;20.50;;
53753;SDS011;39667;52.274;20.964;2022-09-09T13:27:37;26.00;;;20.80;;
53753;SDS011;39667;52.274;20.964;2022-09-09T13:30:23;28.10;;;21.00;;
53753;SDS011;39667;52.274;20.964;2022-09-09T13:38:25;25.10;;;19.40;;
53753;SDS011;39667;52.274;20.964;2022-09-09T13:40:59;33.80;;;23.20;;
53753;SDS011;39667;52.274;20.964;2022-09-09T13:43:31;35.00;;;23.00;;
53753;SDS011;39667;52.274;20.964;2022-09-09T13:46:06;28.50;;;21.70;;
53753;SDS011;39667;52.274;20.964;2022-09-09T13:51:41;29.10;;;21.20;;
53753;SDS011;39667;52.274;20.964;2022-09-09T13:54:14;28.30;;;20.60;;
53753;SDS011;39667;52.274;20.964;2022-09-09T13:56:43;31.40;;;21.50;;
53753;SDS011;39667;52.274;20.964;2022-09-09T13:59:12;25.90;;;20.70;;
53753;SDS011;39667;52.274;20.964;2022-09-09T14:01:41;29.00;;;21.80;;
53753;SDS011;39667;52.274;20.964;2022-09-09T14:04:09;26.60;;;19.90;;
53753;SDS011;39667;52.274;20.964;2022-09-09T14:06:37;27.90;;;20.90;;
53753;SDS011;39667;52.274;20.964;2022-09-09T14:09:06;27.90;;;20.90;;
53753;SDS011;39667;52.274;20.964;2022-09-09T14:11:37;31.50;;;21.30;;
53753;SDS011;39667;52.274;20.964;2022-09-09T14:14:04;28.30;;;21.50;;
53753;SDS011;39667;52.274;20.964;2022-09-09T14:16:31;26.30;;;20.60;;
53753;SDS011;39667;52.274;20.964;2022-09-09T14:19:00;27.50;;;19.70;;
53753;SDS011;39667;52.274;20.964;2022-09-09T14:21:27;27.60;;;20.50;;
53753;SDS011;39667;52.274;20.964;2022-09-09T14:23:55;25.80;;;19.10;;
53753;SDS011;39667;52.274;20.964;2022-09-09T14:26:24;25.50;;;18.40;;
53753;SDS011;39667;52.274;20.964;2022-09-09T14:28:51;27.20;;;20.40;;
53753;SDS011;39667;52.274;20.964;2022-09-09T14:31:21;28.80;;;20.90;;
53753;SDS011;39667;52.274;20.964;2022-09-09T14:33:52;25.70;;;18.30;;
53753;SDS011;39667;52.274;20.964;2022-09-09T14:36:19;26.30;;;19.00;;
53753;SDS011;39667;52.274;20.964;2022-09-09T14:38:46;24.40;;;19.40;;
53753;SDS011;39667;52.274;20.964;2022-09-09T14:41:14;25.30;;;19.70;;
53753;SDS011;39667;52.274;20.964;2022-09-09T14:43:46;24.30;;;18.80;;
53753;SDS011;39667;52.274;20.964;2022-09-09T14:46:17;25.20;;;18.70;;
53753;SDS011;39667;52.274;20.964;2022-09-09T14:48:45;29.50;;;19.50;;
53753;SDS011;39667;52.274;20.964;2022-09-09T14:51:16;26.60;;;18.60;;
53753;SDS011;39667;52.274;20.964;2022-09-09T14:53:46;27.00;;;20.40;;
53753;SDS011;39667;52.274;20.964;2022-09-09T14:56:17;28.60;;;19.80;;
53753;SDS011;39667;52.274;20.964;2022-09-09T14:59:36;28.20;;;19.20;;
53753;SDS011;39667;52.274;20.964;2022-09-09T15:02:04;26.70;;;18.20;;
53753;SDS011;39667;52.274;20.964;2022-09-09T15:04:31;32.60;;;19.60;;
53753;SDS011;39667;52.274;20.964;2022-09-09T15:07:02;29.90;;;20.60;;
53753;SDS011;39667;52.274;20.964;2022-09-09T15:09:29;25.10;;;19.40;;
53753;SDS011;39667;52.274;20.964;2022-09-09T15:11:56;27.80;;;19.40;;
53753;SDS011;39667;52.274;20.964;2022-09-09T15:14:24;28.90;;;19.50;;
53753;SDS011;39667;52.274;20.964;2022-09-09T15:16:52;27.40;;;18.80;;
53753;SDS011;39667;52.274;20.964;2022-09-09T15:19:20;24.40;;;17.70;;
53753;SDS011;39667;52.274;20.964;2022-09-09T15:21:46;28.00;;;20.90;;
53753;SDS011;39667;52.274;20.964;2022-09-09T15:24:15;28.10;;;19.00;;
53753;SDS011;39667;52.274;20.964;2022-09-09T15:26:43;24.30;;;18.60;;
53753;SDS011;39667;52.274;20.964;2022-09-09T15:29:10;25.90;;;18.90;;
53753;SDS011;39667;52.274;20.964;2022-09-09T15:31:37;25.10;;;18.60;;
53753;SDS011;39667;52.274;20.964;2022-09-09T15:34:07;27.10;;;20.30;;
53753;SDS011;39667;52.274;20.964;2022-09-09T15:36:35;29.70;;;21.20;;
53753;SDS011;39667;52.274;20.964;2022-09-09T15:39:05;28.80;;;19.90;;
53753;SDS011;39667;52.274;20.964;2022-09-09T15:41:36;27.20;;;19.30;;
53753;SDS011;39667;52.274;20.964;2022-09-09T15:44:03;28.90;;;19.90;;
53753;SDS011;39667;52.274;20.964;2022-09-09T15:46:33;26.20;;;19.20;;
53753;SDS011;39667;52.274;20.964;2022-09-09T15:51:39;29.80;;;20.30;;
53753;SDS011;39667;52.274;20.964;2022-09-09T15:54:11;25.70;;;18.80;;
53753;SDS011;39667;52.274;20.964;2022-09-09T15:56:47;27.70;;;20.30;;
53753;SDS011;39667;52.274;20.964;2022-09-09T15:59:18;24.10;;;18.00;;
53753;SDS011;39667;52.274;20.964;2022-09-09T16:01:45;25.30;;;19.30;;
53753;SDS011;39667;52.274;20.964;2022-09-09T16:04:12;26.40;;;20.20;;
53753;SDS011;39667;52.274;20.964;2022-09-09T16:06:39;27.80;;;20.40;;
53753;SDS011;39667;52.274;20.964;2022-09-09T16:09:06;27.40;;;19.10;;
53753;SDS011;39667;52.274;20.964;2022-09-09T16:11:35;23.50;;;18.70;;
53753;SDS011;39667;52.274;20.964;2022-09-09T16:14:04;24.30;;;19.00;;
53753;SDS011;39667;52.274;20.964;2022-09-09T16:16:33;26.50;;;18.60;;
53753;SDS011;39667;52.274;20.964;2022-09-09T16:19:06;24.90;;;18.80;;
53753;SDS011;39667;52.274;20.964;2022-09-09T16:21:37;26.50;;;19.50;;
53753;SDS011;39667;52.274;20.964;2022-09-09T16:24:09;25.00;;;18.30;;
53753;SDS011;39667;52.274;20.964;2022-09-09T16:26:40;22.20;;;16.80;;
53753;SDS011;39667;52.274;20.964;2022-09-09T16:29:11;20.50;;;16.90;;
53753;SDS011;39667;52.274;20.964;2022-09-09T16:31:39;25.80;;;19.00;;
53753;SDS011;39667;52.274;20.964;2022-09-09T16:34:08;24.90;;;19.00;;
53753;SDS011;39667;52.274;20.964;2022-09-09T16:36:36;24.70;;;18.90;;
53753;SDS011;39667;52.274;20.964;2022-09-09T16:39:09;22.50;;;17.40;;
53753;SDS011;39667;52.274;20.964;2022-09-09T16:41:38;22.40;;;17.30;;
53753;SDS011;39667;52.274;20.964;2022-09-09T16:44:08;19.40;;;16.40;;
53753;SDS011;39667;52.274;20.964;2022-09-09T16:46:37;21.00;;;16.10;;
53753;SDS011;39667;52.274;20.964;2022-09-09T16:49:08;22.50;;;17.60;;
53753;SDS011;39667;52.274;20.964;2022-09-09T16:51:47;26.50;;;18.40;;
53753;SDS011;39667;52.274;20.964;2022-09-09T16:54:28;18.70;;;15.60;;
53753;SDS011;39667;52.274;20.964;2022-09-09T16:56:55;22.40;;;17.00;;
53753;SDS011;39667;52.274;20.964;2022-09-09T16:59:24;23.10;;;15.90;;
53753;SDS011;39667;52.274;20.964;2022-09-09T17:01:51;19.40;;;15.60;;
53753;SDS011;39667;52.274;20.964;2022-09-09T17:04:20;21.30;;;16.40;;
53753;SDS011;39667;52.274;20.964;2022-09-09T17:06:51;21.00;;;17.00;;
53753;SDS011;39667;52.274;20.964;2022-09-09T17:09:20;21.30;;;15.70;;
53753;SDS011;39667;52.274;20.964;2022-09-09T17:11:49;21.00;;;15.50;;
53753;SDS011;39667;52.274;20.964;2022-09-09T17:14:19;20.90;;;15.80;;
53753;SDS011;39667;52.274;20.964;2022-09-09T17:16:48;20.80;;;16.30;;
53753;SDS011;39667;52.274;20.964;2022-09-09T17:19:16;17.80;;;15.50;;
53753;SDS011;39667;52.274;20.964;2022-09-09T17:21:43;19.40;;;14.70;;
53753;SDS011;39667;52.274;20.964;2022-09-09T17:24:30;20.10;;;15.70;;
53753;SDS011;39667;52.274;20.964;2022-09-09T17:26:57;18.60;;;15.00;;
53753;SDS011;39667;52.274;20.964;2022-09-09T17:29:25;18.10;;;14.70;;
53753;SDS011;39667;52.274;20.964;2022-09-09T17:31:52;19.60;;;16.60;;
53753;SDS011;39667;52.274;20.964;2022-09-09T17:34:19;20.60;;;15.40;;
53753;SDS011;39667;52.274;20.964;2022-09-09T17:36:46;20.10;;;15.70;;
53753;SDS011;39667;52.274;20.964;2022-09-09T17:39:14;18.40;;;15.20;;
53753;SDS011;39667;52.274;20.964;2022-09-09T17:41:42;19.60;;;15.70;;
53753;SDS011;39667;52.274;20.964;2022-09-09T17:44:09;20.10;;;15.20;;
53753;SDS011;39667;52.274;20.964;2022-09-09T17:46:37;18.80;;;16.30;;